Tropical Cyclones
[Index]
Main Index Home Page Stock Weather Photos Extreme Storms Discussion Storm News and Storm Chasing Reports Tropical Cyclones / Hurricanes / Typhoons Weather Data and Links Wild Fires / Bushfires Weather Observation Techniques Weather Picture Catalogue Tornado Pictures and Reports Stock Video Footage and DVDs for sale
Season 2007-2008 Tropical Cyclone GUBA Track Map
Season 2007-2008 Summaries: [BoM-AU] [JTWC-AU] [JTWC-SIO] [JTWC-SPAC] [JTWC-SH]
<<- Previous TC | JTWC 2007-2008 Season | Next TC ->>

click for intensity scale information  Lat/long Grid: Show Hide

 Date Labels: Show Hide

Joint Typhoon Warning Centre Cyclone Data

Name: GUBA

13 Nov 2007 00:00 UTC to 19 Nov 2007 12:00 UTC

    date/time    lat    long     hPa   cat  kts
2007-11-13 00   11.0   149.6    1004         25          
2007-11-13 06   11.3   149.0    1004         25          
2007-11-13 12   11.4   148.2    1000         30          
2007-11-13 18   11.2   147.4     996         35          
2007-11-14 00   10.8   146.9     996         35          
2007-11-14 06   10.7   146.7     996         35          
2007-11-14 12   10.7   146.3     996         35          
2007-11-14 18   10.5   146.0     996         35          
2007-11-15 00   10.5   145.8     993    1    40          
2007-11-15 06   10.6   146.1     989    1    45          
2007-11-15 12   10.7   146.4     989    1    45          
2007-11-15 18   10.9   146.4     985    1    50          
2007-11-16 00   11.1   146.6     978    2    60          
2007-11-16 00   11.1   146.6     978    2    60          
2007-11-16 06   11.4   146.7     970    2    70          
2007-11-16 06   11.4   146.7     970    2    70          
2007-11-16 06   11.4   146.7     970    2    70          
2007-11-16 12   11.5   147.1     967    3    75          
2007-11-16 12   11.5   147.1     967    3    75          
2007-11-16 12   11.5   147.1     967    3    75          
2007-11-16 18   11.4   147.4     974    2    65          
2007-11-16 18   11.4   147.4     974    2    65          
2007-11-16 18   11.4   147.4     974    2    65          
2007-11-17 00   11.3   147.5     982    2    55          
2007-11-17 00   11.3   147.5     982    2    55          
2007-11-17 06   11.5   147.6     982    2    55          
2007-11-17 06   11.5   147.6     982    2    55          
2007-11-17 12   11.8   147.3     985    1    50          
2007-11-17 18   12.2   147.0     989    1    45          
2007-11-18 00   12.4   146.9     989    1    45          
2007-11-18 06   12.6   146.5     989    1    45          
2007-11-18 12   12.7   146.0     993    1    40          
2007-11-18 18   12.4   145.3     996         35          
2007-11-19 00   12.0   144.5     996         35          
2007-11-19 06   11.1   144.5    1000         30          
2007-11-19 12   10.3   144.8    1004         25          
Winds are 1-min average.

Tropical cyclone tracks developed by Michael Bath using data from the Joint Typhoon Warning Centre Best Tracks and Google Maps.


[Australian Severe Weather index] [Copyright Notice] [Email Contacts] [Search This Site] [Privacy Policy]
Document: tropical_cyclone_guba.htm Updated: 28 June 2017